Floris, IA (52560)

17:56 CDT le 30 octobre 2014 (GMT -0500)
Ottumwa | Change Station
CLOSE
Current Station
Stations météorologiques personnelles
Location: Ottumwa, IA
Altitude: 675 ft
Stations météo à proximité

Alt. 675 ft 41.00 °N, 92.44 °W | Updated 4 seconds ago

Nuageux
Nuageux
58.3 ° F
Paraît 58.3 ° F
N
0.0
Vent Variable Vent de Est
Gusts 0.0 mph

Aujourd'hui
Haut(e) -- | Bas -- ° F
--% Risque de précip.
Hier
Haut(e) -- | Bas -- ° F
Precip. -- pouce
7:37 AM 6:07 PM
Lune montante, 48% visible
Pression 30.05 pouce
Visibilité 10.0 Miles terrestres
Nuages Peu 8500 ft
Nuageux 12000 ft
Point de rosée 49 ° F
Humidité 70%
Précipitations 0.00 pouce
Profondeur de la couche neigeuse Non disponible.
UV 0.0 sur 12
Pollen .20 sur 12
Qualité de l'air Non disponible.
Flu Activity Non disponible.
METAR KOTM 302253Z AUTO 07007KT 10SM FEW085 BKN120 13/03 A3004 RMK AO2 SLP174 T01280033

More Conditions Fewer Conditions

Pression 30.05 pouce
Visibilité 10.0 Miles terrestres
Nuages Peu 8500 ft
Nuageux 12000 ft
Point de rosée 49 ° F
Humidité 70%
Précipitations 0.00 pouce
Profondeur de la couche neigeuse Non disponible.
UV 0.0 sur 12
Pollen .20 sur 12
Qualité de l'air Non disponible.
Flu Activity Non disponible.
METAR KOTM 302253Z AUTO 07007KT 10SM FEW085 BKN120 13/03 A3004 RMK AO2 SLP174 T01280033

More Conditions Fewer Conditions

10-Day Weather Forecast

Almanac

Astronomie

Oct. 30, 2014 Lever Coucher
Temps réel
Crépuscule civil
Crépuscule nautique
Crépuscule astronomique
Lune
Durée de lumière visible
Longueur du jour
Tomorrow will be .
, % of the Moon is Illuminated

Extrêmes aujourd'hui

State Highs State Lows

Community

WunderPhotos

Upload Photos

1,766,488 Photos téléchargées !

WunderBlogs® & News

Nearby

Qualité de l'air

  Qualité de l'air Indice de la qualité de l'air Polluant
Not available.

Épaisseur de neige

Station Depth Altitude

Activité sismique

Ville Distance Mag. Time & Date
Minimum magnitude displayed is 2.5.

Températures des eaux côtières

Lieu Température

Stations météo à proximité